createdAt,value
2023-03-25T00:00:18.941Z,2.83
2023-03-25T00:02:50.666Z,2.13
2023-03-25T00:05:21.641Z,1.70
2023-03-25T00:07:52.184Z,4.65
2023-03-25T00:10:20.640Z,1.92
2023-03-25T00:12:48.786Z,2.80
2023-03-25T00:15:17.968Z,2.60
2023-03-25T00:17:46.279Z,3.35
2023-03-25T00:20:16.181Z,1.15
2023-03-25T00:22:44.789Z,1.20
2023-03-25T00:25:17.913Z,1.45
2023-03-25T00:27:47.886Z,1.70
2023-03-25T00:30:17.184Z,1.65
2023-03-25T00:32:50.207Z,1.88
2023-03-25T00:35:20.540Z,3.63
2023-03-25T00:38:00.040Z,2.38
2023-03-25T00:40:29.608Z,4.82
2023-03-25T00:42:58.474Z,1.90
2023-03-25T00:45:26.575Z,1.38
2023-03-25T00:47:54.846Z,2.35
2023-03-25T00:50:26.250Z,1.63
2023-03-25T00:52:54.693Z,1.35
2023-03-25T00:55:23.321Z,2.10
2023-03-25T00:57:51.573Z,1.80
2023-03-25T01:00:20.447Z,2.50
2023-03-25T01:02:53.770Z,1.80
2023-03-25T01:05:22.430Z,1.85
2023-03-25T01:07:52.029Z,1.92
2023-03-25T01:10:20.332Z,3.67
2023-03-25T01:12:48.573Z,2.17
2023-03-25T01:15:17.211Z,1.92
2023-03-25T01:17:45.452Z,1.40
2023-03-25T01:20:13.972Z,1.17
2023-03-25T01:22:42.076Z,2.47
2023-03-25T01:25:11.679Z,1.65
2023-03-25T01:27:39.810Z,2.65
2023-03-25T01:30:09.330Z,0.95
2023-03-25T01:32:37.506Z,1.75
2023-03-25T01:35:07.121Z,2.22
2023-03-25T01:37:36.642Z,2.13
2023-03-25T01:40:08.305Z,2.80
2023-03-25T01:42:37.865Z,0.85
2023-03-25T01:45:35.143Z,1.38
2023-03-25T01:48:07.348Z,1.88
2023-03-25T01:50:37.205Z,1.42
2023-03-25T01:53:07.359Z,1.45
2023-03-25T01:55:36.772Z,1.17
2023-03-25T01:58:11.894Z,1.67
2023-03-25T02:00:41.331Z,1.70
2023-03-25T02:03:10.324Z,0.98
2023-03-25T02:05:43.276Z,1.50
2023-03-25T02:08:11.524Z,2.42
2023-03-25T02:10:39.885Z,1.77
2023-03-25T02:13:09.420Z,2.00
2023-03-25T02:15:48.818Z,2.00
2023-03-25T02:18:26.364Z,1.15
2023-03-25T02:21:37.607Z,1.85
2023-03-25T02:24:43.294Z,1.80
2023-03-25T02:27:27.812Z,1.67
2023-03-25T02:30:19.785Z,1.02
2023-03-25T02:33:16.438Z,1.63
2023-03-25T02:36:05.397Z,1.00
2023-03-25T02:38:41.806Z,1.67
2023-03-25T02:41:15.132Z,2.25
2023-03-25T02:43:48.505Z,1.92
2023-03-25T02:46:19.122Z,2.15
2023-03-25T02:48:54.966Z,0.55
2023-03-25T02:51:27.583Z,0.93
2023-03-25T02:54:02.010Z,1.05
2023-03-25T02:56:33.018Z,0.68
2023-03-25T02:59:02.216Z,2.72
2023-03-25T03:01:30.401Z,1.17
2023-03-25T03:03:58.553Z,0.55
2023-03-25T03:06:26.927Z,1.17
2023-03-25T03:09:13.324Z,1.95
2023-03-25T03:11:56.141Z,2.70
2023-03-25T03:14:35.802Z,2.33
2023-03-25T03:17:11.479Z,1.65
2023-03-25T03:19:46.449Z,1.23
2023-03-25T03:22:25.921Z,2.38
2023-03-25T03:25:03.158Z,1.27
2023-03-25T03:27:36.102Z,1.52
2023-03-25T03:30:12.110Z,1.00
2023-03-25T03:32:45.750Z,0.73
2023-03-25T03:35:20.068Z,1.10
2023-03-25T03:37:53.868Z,1.05
2023-03-25T03:40:25.867Z,1.23
2023-03-25T03:42:58.593Z,1.35
2023-03-25T03:45:32.335Z,1.05
2023-03-25T03:48:03.590Z,1.98
2023-03-25T03:50:36.603Z,1.60
2023-03-25T03:53:09.747Z,1.85
2023-03-25T03:55:42.777Z,2.92
2023-03-25T03:58:15.809Z,1.38
2023-03-25T04:00:50.786Z,1.30
2023-03-25T04:03:24.653Z,0.80
2023-03-25T04:05:59.915Z,1.15
2023-03-25T04:08:33.407Z,1.20
2023-03-25T04:11:09.772Z,1.67
2023-03-25T04:13:41.549Z,1.95
2023-03-25T04:16:10.841Z,1.00
2023-03-25T04:18:39.567Z,1.10
2023-03-25T04:21:09.843Z,1.17
2023-03-25T04:23:41.246Z,1.73
2023-03-25T04:26:10.781Z,1.27
2023-03-25T04:28:41.897Z,0.90
2023-03-25T04:31:16.650Z,1.08
2023-03-25T04:33:48.634Z,1.42
2023-03-25T04:36:17.293Z,2.05
2023-03-25T04:38:46.234Z,1.98
2023-03-25T04:41:16.053Z,1.67
2023-03-25T04:43:45.394Z,1.08
2023-03-25T04:46:16.498Z,1.02
2023-03-25T04:48:46.112Z,2.38
2023-03-25T04:51:15.466Z,1.27
2023-03-25T04:53:43.970Z,1.88
2023-03-25T04:56:17.510Z,0.82
2023-03-25T04:58:45.908Z,2.15
2023-03-25T05:01:23.320Z,3.05
2023-03-25T05:03:51.520Z,1.05
2023-03-25T05:06:19.818Z,1.63
2023-03-25T05:08:48.046Z,0.73
2023-03-25T05:11:17.836Z,1.75
2023-03-25T05:13:45.943Z,1.38
2023-03-25T05:16:14.065Z,1.48
2023-03-25T05:18:42.248Z,1.85
2023-03-25T05:21:11.444Z,0.77
2023-03-25T05:23:39.693Z,1.05
2023-03-25T05:26:08.099Z,1.80
2023-03-25T05:28:37.847Z,1.73
2023-03-25T05:31:08.406Z,1.08
2023-03-25T05:33:42.796Z,1.23
2023-03-25T05:36:12.076Z,1.15
2023-03-25T05:38:41.968Z,0.82
2023-03-25T05:41:12.147Z,0.85
2023-03-25T05:43:41.665Z,1.07
2023-03-25T05:46:09.897Z,1.63
2023-03-25T05:48:38.101Z,1.35
2023-03-25T05:51:13.549Z,0.80
2023-03-25T05:53:43.675Z,1.02
2023-03-25T05:56:12.441Z,1.50
2023-03-25T05:58:41.997Z,2.53
2023-03-25T06:01:25.490Z,2.22
2023-03-25T06:04:02.602Z,1.30
2023-03-25T06:06:32.068Z,0.73
2023-03-25T06:09:01.199Z,3.60
2023-03-25T06:11:29.553Z,1.40
2023-03-25T06:13:59.644Z,1.02
2023-03-25T06:16:30.367Z,2.22
2023-03-25T06:19:00.689Z,0.75
2023-03-25T06:21:30.059Z,1.03
2023-03-25T06:24:00.504Z,0.60
2023-03-25T06:26:29.297Z,1.02
2023-03-25T06:28:59.096Z,0.93
2023-03-25T06:31:28.155Z,0.73
2023-03-25T06:33:57.132Z,0.68
2023-03-25T06:36:26.000Z,1.17
2023-03-25T06:38:55.041Z,1.30
2023-03-25T06:41:25.829Z,1.40
2023-03-25T06:43:54.188Z,2.05
2023-03-25T06:46:23.926Z,2.00
2023-03-25T06:48:52.129Z,1.20
2023-03-25T06:51:22.172Z,1.35
2023-03-25T06:53:50.467Z,1.38
2023-03-25T06:56:18.877Z,1.23
2023-03-25T06:58:47.122Z,1.20
2023-03-25T07:01:15.600Z,0.60
2023-03-25T07:03:45.146Z,0.63
2023-03-25T07:06:19.231Z,1.40
2023-03-25T07:08:47.449Z,2.42
2023-03-25T07:11:17.216Z,1.02
2023-03-25T07:13:45.323Z,0.85
2023-03-25T07:16:14.669Z,1.20
2023-03-25T07:18:44.405Z,1.25
2023-03-25T07:21:12.557Z,2.13
2023-03-25T07:23:40.783Z,1.80
2023-03-25T07:26:09.073Z,3.15
2023-03-25T07:28:38.063Z,3.90
2023-03-25T07:31:08.499Z,8.57
2023-03-25T07:33:37.219Z,4.57
2023-03-25T07:36:08.668Z,5.93
2023-03-25T07:38:37.362Z,4.60
2023-03-25T07:41:07.669Z,2.65
2023-03-25T07:43:35.919Z,7.57
2023-03-25T07:46:04.099Z,6.13
2023-03-25T07:48:32.397Z,7.65
2023-03-25T07:51:00.692Z,11.13
2023-03-25T07:53:30.297Z,25.90
2023-03-25T07:55:58.468Z,13.95
2023-03-25T07:58:26.617Z,27.33
2023-03-25T08:00:57.468Z,27.45
2023-03-25T08:03:25.687Z,24.70
2023-03-25T08:05:54.190Z,21.33
2023-03-25T08:08:22.730Z,22.52
2023-03-25T08:10:53.467Z,19.75
2023-03-25T08:13:21.658Z,16.75
2023-03-25T08:15:50.231Z,33.85
2023-03-25T08:18:18.580Z,18.35
2023-03-25T08:20:46.848Z,22.83
2023-03-25T08:23:19.978Z,28.52
2023-03-25T08:25:50.364Z,31.35
2023-03-25T08:28:23.424Z,36.05
2023-03-25T08:30:54.850Z,23.70
2023-03-25T08:33:27.442Z,18.77
2023-03-25T08:35:58.700Z,17.35
2023-03-25T08:41:03.006Z,18.48
2023-03-25T08:43:32.624Z,17.52
2023-03-25T08:46:00.907Z,15.13
2023-03-25T08:48:29.194Z,11.98
2023-03-25T08:50:57.491Z,11.48
2023-03-25T08:53:26.657Z,9.70
2023-03-25T08:55:55.193Z,12.52
2023-03-25T08:58:23.579Z,8.38
2023-03-25T09:00:55.839Z,7.35
2023-03-25T09:03:24.836Z,7.47
2023-03-25T09:05:53.489Z,9.88
2023-03-25T09:08:22.216Z,9.88
2023-03-25T09:10:50.546Z,5.22
2023-03-25T09:13:18.782Z,5.75
2023-03-25T09:15:47.247Z,8.25
2023-03-25T09:18:16.813Z,6.00
2023-03-25T09:20:47.717Z,8.52
2023-03-25T09:23:16.304Z,10.52
2023-03-25T09:25:44.553Z,4.57
2023-03-25T09:28:12.731Z,7.55
2023-03-25T09:30:41.207Z,9.23
2023-03-25T09:33:09.476Z,9.48
2023-03-25T09:35:41.205Z,6.65
2023-03-25T09:38:09.396Z,5.72
2023-03-25T09:40:38.989Z,6.65
2023-03-25T09:43:25.554Z,5.75
2023-03-25T09:45:55.261Z,9.68
2023-03-25T09:48:30.931Z,3.88
2023-03-25T09:51:03.956Z,5.63
2023-03-25T09:53:37.780Z,6.50
2023-03-25T09:56:11.865Z,4.57
2023-03-25T09:58:44.544Z,7.95
2023-03-25T10:01:37.391Z,4.57
2023-03-25T10:04:26.473Z,6.28
2023-03-25T10:07:06.298Z,8.60
2023-03-25T10:09:44.233Z,6.78
2023-03-25T10:12:29.206Z,4.68
2023-03-25T10:15:06.345Z,5.07
2023-03-25T10:17:44.388Z,3.53
2023-03-25T10:20:17.550Z,5.80
2023-03-25T10:23:02.785Z,5.60
2023-03-25T10:25:33.489Z,5.13
2023-03-25T10:28:03.289Z,3.40
2023-03-25T10:30:35.549Z,4.22
2023-03-25T10:33:07.024Z,4.07
2023-03-25T10:35:40.534Z,4.72
2023-03-25T10:38:18.644Z,3.95
2023-03-25T10:40:50.328Z,3.60
2023-03-25T10:43:27.023Z,4.65
2023-03-25T10:45:59.173Z,7.32
2023-03-25T10:48:29.646Z,8.90
2023-03-25T10:51:04.312Z,4.75
2023-03-25T10:53:33.881Z,7.93
2023-03-25T10:56:07.610Z,13.15
2023-03-25T10:58:38.406Z,12.15
2023-03-25T11:01:13.077Z,5.05
2023-03-25T11:03:43.038Z,5.68
2023-03-25T11:06:24.317Z,6.72
2023-03-25T11:09:13.609Z,8.57
2023-03-25T11:11:43.193Z,8.95
2023-03-25T11:14:12.402Z,5.18
2023-03-25T11:16:44.928Z,7.72
2023-03-25T11:19:23.965Z,7.97
2023-03-25T11:21:56.648Z,6.10
2023-03-25T11:24:32.274Z,6.97
2023-03-25T11:27:01.928Z,8.15
2023-03-25T11:29:32.666Z,6.80
2023-03-25T11:32:08.796Z,10.48
2023-03-25T11:34:42.448Z,10.07
2023-03-25T11:37:18.991Z,6.03
2023-03-25T11:39:55.401Z,6.53
2023-03-25T11:42:33.423Z,5.65
2023-03-25T11:45:03.911Z,5.28
2023-03-25T11:47:34.720Z,7.45
2023-03-25T11:50:03.892Z,6.28
2023-03-25T11:52:40.733Z,5.18
2023-03-25T11:55:18.617Z,6.40
2023-03-25T11:57:48.921Z,5.78
2023-03-25T12:00:32.734Z,4.47
2023-03-25T12:03:02.981Z,5.90
2023-03-25T12:05:32.109Z,7.97
2023-03-25T12:08:15.041Z,9.07
2023-03-25T12:10:53.748Z,9.35
2023-03-25T12:13:33.079Z,6.13
2023-03-25T12:16:14.062Z,6.72
2023-03-25T12:19:02.045Z,9.25
2023-03-25T12:21:55.978Z,10.10
2023-03-25T12:24:36.749Z,7.72
2023-03-25T12:27:21.215Z,7.38
2023-03-25T12:29:56.705Z,7.07
2023-03-25T12:32:34.727Z,5.53
2023-03-25T12:35:18.003Z,5.90
2023-03-25T12:38:02.038Z,8.15
2023-03-25T12:40:42.471Z,5.55
2023-03-25T12:43:16.116Z,7.93
2023-03-25T12:46:03.958Z,4.85
2023-03-25T12:48:53.536Z,6.22
2023-03-25T12:51:35.081Z,5.47
2023-03-25T12:54:16.224Z,7.22
2023-03-25T12:59:44.553Z,6.47
2023-03-25T13:02:24.644Z,12.05
2023-03-25T13:05:04.689Z,5.95
2023-03-25T13:07:36.705Z,6.80
2023-03-25T13:10:13.937Z,5.38
2023-03-25T13:12:47.628Z,7.03
2023-03-25T13:15:26.702Z,5.95
2023-03-25T13:18:00.019Z,6.43
2023-03-25T13:20:32.271Z,6.20
2023-03-25T13:23:04.746Z,3.90
2023-03-25T13:25:43.416Z,3.72
2023-03-25T13:28:16.236Z,2.75
2023-03-25T13:30:48.290Z,5.25
2023-03-25T13:33:20.366Z,5.38
2023-03-25T13:35:52.669Z,4.88
2023-03-25T13:38:27.265Z,5.45
2023-03-25T13:41:08.552Z,5.75
2023-03-25T13:43:44.218Z,7.97
2023-03-25T13:46:17.196Z,6.68
2023-03-25T13:48:51.718Z,3.55
2023-03-25T13:51:20.062Z,4.00
2023-03-25T13:53:52.929Z,5.07
2023-03-25T13:57:00.584Z,7.57
2023-03-25T14:00:05.958Z,4.68
2023-03-25T14:02:45.699Z,3.35
2023-03-25T14:05:41.197Z,4.00
2023-03-25T14:08:46.047Z,3.25
2023-03-25T14:11:27.237Z,7.90
2023-03-25T14:16:30.654Z,5.35
2023-03-25T14:19:05.943Z,4.55
2023-03-25T14:21:42.212Z,3.13
2023-03-25T14:24:14.983Z,3.15
2023-03-25T14:26:47.746Z,7.30
2023-03-25T14:29:24.853Z,4.07
2023-03-25T14:32:05.252Z,5.45
2023-03-25T14:34:35.102Z,4.20
2023-03-25T14:37:27.547Z,4.22
2023-03-25T14:39:59.838Z,5.20
2023-03-25T14:42:42.417Z,4.25
2023-03-25T14:45:42.427Z,4.70
2023-03-25T14:48:26.535Z,4.75
2023-03-25T14:51:23.429Z,3.95
2023-03-25T14:53:55.224Z,3.70
2023-03-25T14:56:26.824Z,4.28
2023-03-25T14:58:58.330Z,5.20
2023-03-25T15:01:32.936Z,7.07
2023-03-25T15:04:15.558Z,5.05
2023-03-25T15:06:46.124Z,5.25
2023-03-25T15:09:17.386Z,2.45
2023-03-25T15:11:52.635Z,5.88
2023-03-25T15:14:25.199Z,5.82
2023-03-25T15:17:11.715Z,4.68
2023-03-25T15:20:27.886Z,6.10
2023-03-25T15:23:38.882Z,5.57
2023-03-25T15:26:14.868Z,3.28
2023-03-25T15:29:04.201Z,8.20
2023-03-25T15:31:59.757Z,4.85
2023-03-25T15:34:41.506Z,7.85
2023-03-25T15:37:45.291Z,3.25
2023-03-25T15:40:26.539Z,5.00
2023-03-25T15:43:47.156Z,3.22
2023-03-25T15:46:40.151Z,3.78
2023-03-25T15:49:21.858Z,3.58
2023-03-25T15:52:13.610Z,4.40
2023-03-25T15:54:46.315Z,3.17
2023-03-25T15:57:24.372Z,4.68
2023-03-25T16:00:01.282Z,4.80
2023-03-25T16:02:34.783Z,4.85
2023-03-25T16:05:04.794Z,1.83
2023-03-25T16:07:35.198Z,2.65
2023-03-25T16:10:16.687Z,3.75
2023-03-25T16:12:47.498Z,4.57
2023-03-25T16:15:18.883Z,3.88
2023-03-25T16:17:48.298Z,6.28
2023-03-25T16:20:20.931Z,3.28
2023-03-25T16:22:52.022Z,3.13
2023-03-25T16:27:53.949Z,4.90
2023-03-25T16:30:26.592Z,5.75
2023-03-25T16:33:04.927Z,5.40
2023-03-25T16:35:33.278Z,4.20
2023-03-25T16:38:03.820Z,3.65
2023-03-25T16:40:34.561Z,3.45
2023-03-25T16:43:07.194Z,5.05
2023-03-25T16:45:37.396Z,3.50
2023-03-25T16:48:10.041Z,2.60
2023-03-25T16:50:39.182Z,2.78
2023-03-25T16:53:07.894Z,2.35
2023-03-25T16:55:47.256Z,3.35
2023-03-25T16:58:19.553Z,4.78
2023-03-25T17:00:52.446Z,4.60
2023-03-25T17:03:40.200Z,3.60
2023-03-25T17:06:19.468Z,3.33
2023-03-25T17:08:51.472Z,2.90
2023-03-25T17:11:20.986Z,3.25
2023-03-25T17:13:52.237Z,1.63
2023-03-25T17:16:22.563Z,3.67
2023-03-25T17:18:54.557Z,2.33
2023-03-25T17:21:27.195Z,2.47
2023-03-25T17:23:56.539Z,4.68
2023-03-25T17:26:26.675Z,4.03
2023-03-25T17:29:03.242Z,1.90
2023-03-25T17:31:37.977Z,2.58
2023-03-25T17:34:08.302Z,3.63
2023-03-25T17:36:38.047Z,3.03
2023-03-25T17:39:16.064Z,3.20
2023-03-25T17:41:44.564Z,1.90
2023-03-25T17:44:16.787Z,2.67
2023-03-25T17:46:46.537Z,3.15
2023-03-25T17:49:17.570Z,2.67
2023-03-25T17:54:15.605Z,6.88
2023-03-25T17:56:44.219Z,5.28
2023-03-25T17:59:16.731Z,15.98
2023-03-25T18:01:47.586Z,11.75
2023-03-25T18:04:16.489Z,13.52
2023-03-25T18:06:45.362Z,22.35
2023-03-25T18:09:17.978Z,20.35
2023-03-25T18:11:47.777Z,24.05
2023-03-25T18:14:16.131Z,22.80
2023-03-25T18:16:45.963Z,31.55
2023-03-25T18:19:17.017Z,16.67
2023-03-25T18:24:14.542Z,13.93
2023-03-25T18:26:43.452Z,20.52
2023-03-25T18:29:14.011Z,15.68
2023-03-25T18:31:42.170Z,17.13
2023-03-25T18:34:13.070Z,16.67
2023-03-25T18:39:14.958Z,13.85
2023-03-25T18:41:43.331Z,18.77
2023-03-25T18:44:12.704Z,16.67
2023-03-25T18:46:41.639Z,13.80
2023-03-25T18:49:14.953Z,13.07
2023-03-25T18:51:43.193Z,15.32
2023-03-25T18:54:12.012Z,20.30
2023-03-25T18:56:41.616Z,9.50
2023-03-25T18:59:10.671Z,14.48
2023-03-25T19:01:40.185Z,14.27
2023-03-25T19:04:09.229Z,12.98
2023-03-25T19:06:39.462Z,15.52
2023-03-25T19:09:09.307Z,12.67
2023-03-25T19:11:37.624Z,9.98
2023-03-25T19:14:05.852Z,9.60
2023-03-25T19:16:34.025Z,10.55
2023-03-25T19:19:02.224Z,13.57
2023-03-25T19:21:30.508Z,13.00
2023-03-25T19:24:00.113Z,13.80
2023-03-25T19:26:29.314Z,11.68
2023-03-25T19:28:57.591Z,11.30
2023-03-25T19:31:25.942Z,15.38
2023-03-25T19:33:54.167Z,12.30
2023-03-25T19:36:23.076Z,12.73
2023-03-25T19:38:53.216Z,8.57
2023-03-25T19:41:22.843Z,17.40
2023-03-25T19:43:51.273Z,14.95
2023-03-25T19:46:19.981Z,12.02
2023-03-25T19:48:48.294Z,10.20
2023-03-25T19:51:16.477Z,10.70
2023-03-25T19:53:44.659Z,10.13
2023-03-25T19:56:14.146Z,7.82
2023-03-25T19:58:43.818Z,7.10
2023-03-25T20:01:12.203Z,10.32
2023-03-25T20:03:41.195Z,9.27
2023-03-25T20:06:09.810Z,9.85
2023-03-25T20:08:38.448Z,11.05
2023-03-25T20:11:12.084Z,10.15
2023-03-25T20:13:40.432Z,13.05
2023-03-25T20:16:11.075Z,13.65
2023-03-25T20:18:41.382Z,11.07
2023-03-25T20:21:10.583Z,10.10
2023-03-25T20:23:38.938Z,9.25
2023-03-25T20:26:07.375Z,14.50
2023-03-25T20:28:37.197Z,10.50
2023-03-25T20:31:18.465Z,13.02
2023-03-25T20:33:47.167Z,11.07
2023-03-25T20:36:15.546Z,10.27
2023-03-25T20:38:56.053Z,9.05
2023-03-25T20:41:25.634Z,8.77
2023-03-25T20:43:53.794Z,10.63
2023-03-25T20:46:25.526Z,9.10
2023-03-25T20:48:53.816Z,12.70
2023-03-25T20:51:24.201Z,10.25
2023-03-25T20:53:53.289Z,7.18
2023-03-25T20:56:21.804Z,9.13
2023-03-25T20:58:50.015Z,10.38
2023-03-25T21:01:18.431Z,11.50
2023-03-25T21:03:48.970Z,13.00
2023-03-25T21:06:24.035Z,13.65
2023-03-25T21:08:54.737Z,7.82
2023-03-25T21:11:23.373Z,7.60
2023-03-25T21:13:52.272Z,6.95
2023-03-25T21:16:20.850Z,8.43
2023-03-25T21:18:51.271Z,7.45
2023-03-25T21:21:20.150Z,10.82
2023-03-25T21:23:49.381Z,10.32
2023-03-25T21:26:18.133Z,7.70
2023-03-25T21:28:48.770Z,7.18
2023-03-25T21:31:21.804Z,8.85
2023-03-25T21:33:52.913Z,9.68
2023-03-25T21:36:23.071Z,10.70
2023-03-25T21:38:52.734Z,7.17
2023-03-25T21:41:21.000Z,8.93
2023-03-25T21:43:49.398Z,6.95
2023-03-25T21:46:17.722Z,7.55
2023-03-25T21:48:48.575Z,7.35
2023-03-25T21:51:18.503Z,5.70
2023-03-25T21:53:46.991Z,5.63
2023-03-25T21:56:17.494Z,7.40
2023-03-25T21:58:47.016Z,10.40
2023-03-25T22:01:17.795Z,5.75
2023-03-25T22:03:46.565Z,7.72
2023-03-25T22:06:18.395Z,9.02
2023-03-25T22:08:47.377Z,8.68
2023-03-25T22:11:17.484Z,11.05
2023-03-25T22:13:46.480Z,9.90
2023-03-25T22:16:16.732Z,7.32
2023-03-25T22:18:45.477Z,7.47
2023-03-25T22:21:15.776Z,9.02
2023-03-25T22:23:47.037Z,7.90
2023-03-25T22:26:16.556Z,7.22
2023-03-25T22:28:45.576Z,5.35
2023-03-25T22:31:15.685Z,4.63
2023-03-25T22:33:44.410Z,6.90
2023-03-25T22:36:14.213Z,7.07
2023-03-25T22:38:45.356Z,7.20
2023-03-25T22:43:43.232Z,5.63
2023-03-25T22:46:11.732Z,7.85
2023-03-25T22:48:40.060Z,7.15
2023-03-25T22:51:09.802Z,5.13
2023-03-25T22:53:38.079Z,5.90
2023-03-25T22:56:09.415Z,5.68
2023-03-25T22:58:38.434Z,5.57
2023-03-25T23:01:08.978Z,6.35
2023-03-25T23:03:37.452Z,7.07
2023-03-25T23:06:08.734Z,3.45
2023-03-25T23:08:39.557Z,4.07
2023-03-25T23:11:11.564Z,3.83
2023-03-25T23:13:40.843Z,6.00
2023-03-25T23:16:11.305Z,3.42
2023-03-25T23:18:39.732Z,6.25
2023-03-25T23:21:09.245Z,5.13
2023-03-25T23:23:37.477Z,5.65
2023-03-25T23:26:08.100Z,4.32
2023-03-25T23:28:39.092Z,7.25
2023-03-25T23:31:11.455Z,7.07
2023-03-25T23:33:39.979Z,6.05
2023-03-25T23:36:09.816Z,5.07
2023-03-25T23:38:39.490Z,5.75
2023-03-25T23:41:09.140Z,4.22
2023-03-25T23:43:39.041Z,5.80
2023-03-25T23:46:09.192Z,3.92
2023-03-25T23:48:40.757Z,7.10
2023-03-25T23:51:10.446Z,5.53
2023-03-25T23:53:39.689Z,4.78
2023-03-25T23:56:08.956Z,7.10
2023-03-25T23:58:39.589Z,5.90
